De Lier, Netherlands
Current Conditions -  °F | °C
As of 6:55 PM on Friday 21 Nov 2014 (Local Time) from EHRD Reporting Station
Clear Clear  
Wind Chill: 41°   Ceiling: Unl
Heat Index: 45°   Visibility: 6mi
Dew Point: 39°   Wind: 7mph
Humidity: 81%   Direction: 100°E
Pressure: 30.09"   Gusts: NA
Location:  51.98°N, 4.25°E
Report Text: EHRD 211755Z AUTO 10006KT 060V120 9999 NSC 07/04 Q1019 NOSIG
Loading
Personal Weather Stations






























Interactive Weather Map New forecast layout! Learn more

10-Day Weather Forecast

Advertisements
Track Severe Weather on mobile